createdAt,value
2023-05-10T00:01:19.086Z,101794.91
2023-05-10T00:06:17.665Z,101791.72
2023-05-10T00:11:14.353Z,101788.63
2023-05-10T00:16:13.480Z,101785.25
2023-05-10T00:21:10.768Z,101785.88
2023-05-10T00:26:07.399Z,101792.84
2023-05-10T00:31:04.215Z,101790.34
2023-05-10T00:36:00.968Z,101787.03
2023-05-10T00:40:58.169Z,101780.31
2023-05-10T00:46:02.523Z,101784.59
2023-05-10T00:50:59.272Z,101787.81
2023-05-10T00:55:56.015Z,101783.03
2023-05-10T01:00:53.359Z,101783.34
2023-05-10T01:05:50.307Z,101777.97
2023-05-10T01:10:49.381Z,101765.69
2023-05-10T01:15:47.349Z,101772.53
2023-05-10T01:20:48.484Z,101761.81
2023-05-10T01:26:08.663Z,101767.84
2023-05-10T01:31:09.517Z,101766.28
2023-05-10T01:36:09.974Z,101764.41
2023-05-10T01:41:13.134Z,101762.41
2023-05-10T01:46:11.504Z,101764.66
2023-05-10T01:51:10.166Z,101757.28
2023-05-10T01:56:08.579Z,101762.06
2023-05-10T02:01:05.671Z,101768.06
2023-05-10T02:06:04.648Z,101763.81
2023-05-10T02:11:03.022Z,101775.78
2023-05-10T02:16:00.316Z,101772.22
2023-05-10T02:20:57.451Z,101783.59
2023-05-10T02:25:54.477Z,101783.19
2023-05-10T02:30:52.312Z,101782.50
2023-05-10T02:35:49.394Z,101778.41
2023-05-10T02:40:47.320Z,101771.50
2023-05-10T02:45:44.455Z,101771.78
2023-05-10T02:50:44.004Z,101773.66
2023-05-10T02:55:41.684Z,101769.69
2023-05-10T03:00:38.215Z,101775.19
2023-05-10T03:05:34.728Z,101772.88
2023-05-10T03:10:35.648Z,101779.13
2023-05-10T03:15:36.861Z,101770.41
2023-05-10T03:20:36.427Z,101780.44
2023-05-10T03:25:33.306Z,101774.16
2023-05-10T03:30:32.517Z,101768.47
2023-05-10T03:35:29.308Z,101748.97
2023-05-10T03:40:26.784Z,101787.31
2023-05-10T03:45:23.503Z,101790.94
2023-05-10T03:50:21.246Z,101780.97
2023-05-10T03:55:18.473Z,101785.88
2023-05-10T04:00:16.482Z,101784.56
2023-05-10T04:05:13.513Z,101794.03
2023-05-10T04:10:11.440Z,101789.16
2023-05-10T04:15:08.557Z,101788.97
2023-05-10T04:20:05.754Z,101786.78
2023-05-10T04:25:02.334Z,101791.56
2023-05-10T04:29:59.663Z,101793.31
2023-05-10T04:34:56.395Z,101791.94
2023-05-10T04:39:53.164Z,101779.34
2023-05-10T04:44:49.731Z,101788.69
2023-05-10T04:49:47.082Z,101792.69
2023-05-10T04:54:43.649Z,101792.34
2023-05-10T04:59:40.218Z,101784.28
2023-05-10T05:04:37.071Z,101794.13
2023-05-10T05:09:34.565Z,101789.66
2023-05-10T05:14:31.106Z,101798.00
2023-05-10T05:19:27.752Z,101800.06
2023-05-10T05:24:24.321Z,101796.97
2023-05-10T05:29:21.546Z,101801.84
2023-05-10T05:34:18.358Z,101787.91
2023-05-10T05:39:15.294Z,101776.22
2023-05-10T05:44:11.908Z,101797.69
2023-05-10T05:49:09.642Z,101800.97
2023-05-10T05:54:06.794Z,101797.09
2023-05-10T05:59:07.036Z,101802.81
2023-05-10T06:04:04.018Z,101801.03
2023-05-10T06:09:01.469Z,101795.69
2023-05-10T06:14:00.250Z,101806.84
2023-05-10T06:19:07.735Z,101804.41
2023-05-10T06:24:07.387Z,101799.94
2023-05-10T06:29:05.365Z,101793.50
2023-05-10T06:34:02.201Z,101793.78
2023-05-10T06:38:58.781Z,101795.41
2023-05-10T06:43:56.181Z,101792.63
2023-05-10T06:48:53.111Z,101801.28
2023-05-10T06:53:49.799Z,101803.09
2023-05-10T06:58:46.782Z,101803.06
2023-05-10T07:03:49.068Z,101797.13
2023-05-10T07:08:45.877Z,101794.06
2023-05-10T07:13:45.025Z,101789.84
2023-05-10T07:18:41.776Z,101787.94
2023-05-10T07:23:43.668Z,101795.28
2023-05-10T07:28:41.746Z,101803.34
2023-05-10T07:33:38.447Z,101791.84
2023-05-10T07:38:40.240Z,101788.38
2023-05-10T07:43:38.985Z,101781.06
2023-05-10T07:48:36.025Z,101764.53
2023-05-10T07:53:32.991Z,101782.97
2023-05-10T07:58:29.695Z,101782.44
2023-05-10T08:03:28.628Z,101782.81
2023-05-10T08:08:25.844Z,101785.47
2023-05-10T08:13:24.041Z,101781.66
2023-05-10T08:18:22.261Z,101782.25
2023-05-10T08:23:19.848Z,101788.50
2023-05-10T08:28:16.819Z,101781.06
2023-05-10T08:33:13.993Z,101778.09
2023-05-10T08:38:10.833Z,101774.03
2023-05-10T08:43:15.536Z,101771.47
2023-05-10T08:48:12.852Z,101774.03
2023-05-10T08:53:10.832Z,101766.03
2023-05-10T08:58:10.069Z,101762.63
2023-05-10T09:03:07.566Z,101761.22
2023-05-10T09:08:04.700Z,101766.81
2023-05-10T09:13:03.992Z,101747.66
2023-05-10T09:18:02.981Z,101755.78
2023-05-10T09:22:59.638Z,101758.13
2023-05-10T09:27:56.365Z,101751.91
2023-05-10T09:32:53.616Z,101753.31
2023-05-10T09:37:53.373Z,101753.03
2023-05-10T09:42:54.392Z,101743.91
2023-05-10T09:47:51.155Z,101737.91
2023-05-10T09:52:49.362Z,101735.09
2023-05-10T09:57:46.678Z,101732.00
2023-05-10T10:02:45.944Z,101722.56
2023-05-10T10:07:42.885Z,101726.16
2023-05-10T10:12:42.575Z,101708.25
2023-05-10T10:17:40.751Z,101723.47
2023-05-10T10:22:38.172Z,101719.66
2023-05-10T10:27:40.579Z,101720.94
2023-05-10T10:32:48.882Z,101722.47
2023-05-10T10:37:46.689Z,101713.66
2023-05-10T10:42:46.877Z,101704.69
2023-05-10T10:47:44.770Z,101703.34
2023-05-10T10:52:41.754Z,101695.13
2023-05-10T10:57:47.814Z,101697.44
2023-05-10T11:02:46.373Z,101684.16
2023-05-10T11:07:52.268Z,101667.94
2023-05-10T11:12:52.640Z,101673.53
2023-05-10T11:17:55.604Z,101667.16
2023-05-10T11:22:52.836Z,101646.97
2023-05-10T11:27:49.455Z,101670.09
2023-05-10T11:38:50.142Z,101662.50
2023-05-10T11:43:49.858Z,101642.22
2023-05-10T11:48:47.908Z,101657.72
2023-05-10T11:53:44.713Z,101656.50
2023-05-10T11:58:41.581Z,101640.28
2023-05-10T12:03:38.830Z,101641.31
2023-05-10T12:08:36.383Z,101641.25
2023-05-10T12:13:33.626Z,101630.41
2023-05-10T12:18:33.112Z,101623.34
2023-05-10T12:23:31.569Z,101613.53
2023-05-10T12:28:40.287Z,101614.97
2023-05-10T12:33:40.635Z,101584.75
2023-05-10T12:38:38.632Z,101607.16
2023-05-10T12:43:36.731Z,101595.06
2023-05-10T12:48:34.379Z,101590.66
2023-05-10T12:53:31.441Z,101578.03
2023-05-10T12:58:35.703Z,101572.88
2023-05-10T13:03:33.649Z,101566.47
2023-05-10T13:08:35.687Z,101568.34
2023-05-10T13:13:32.788Z,101564.50
2023-05-10T13:18:29.561Z,101557.22
2023-05-10T13:23:27.388Z,101561.88
2023-05-10T13:28:25.324Z,101568.97
2023-05-10T13:33:22.117Z,101560.72
2023-05-10T13:38:19.937Z,101546.03
2023-05-10T13:43:19.153Z,101556.97
2023-05-10T13:48:16.320Z,101549.72
2023-05-10T13:53:13.252Z,101552.28
2023-05-10T13:58:09.946Z,101548.00
2023-05-10T14:03:09.434Z,101542.41
2023-05-10T14:08:06.326Z,101551.25
2023-05-10T14:13:03.573Z,101538.47
2023-05-10T14:18:00.182Z,101545.97
2023-05-10T14:22:57.730Z,101536.28
2023-05-10T14:27:55.102Z,101538.72
2023-05-10T14:32:54.277Z,101535.44
2023-05-10T14:37:50.840Z,101532.63
2023-05-10T14:42:48.099Z,101542.56
2023-05-10T14:47:44.635Z,101530.66
2023-05-10T14:52:41.194Z,101533.25
2023-05-10T14:57:37.961Z,101528.94
2023-05-10T15:02:35.223Z,101536.34
2023-05-10T15:07:34.653Z,101521.28
2023-05-10T15:12:31.215Z,101515.47
2023-05-10T15:17:27.751Z,101526.66
2023-05-10T15:22:25.207Z,101535.66
2023-05-10T15:27:21.788Z,101525.81
2023-05-10T15:32:18.466Z,101524.78
2023-05-10T15:37:15.065Z,101524.00
2023-05-10T15:42:12.546Z,101520.28
2023-05-10T15:47:09.060Z,101521.53
2023-05-10T15:52:05.820Z,101516.13
2023-05-10T15:57:02.470Z,101518.69
2023-05-10T16:01:59.971Z,101531.06
2023-05-10T16:06:56.575Z,101521.56
2023-05-10T16:11:53.108Z,101531.31
2023-05-10T16:16:51.143Z,101532.97
2023-05-10T16:21:48.528Z,101544.34
2023-05-10T16:26:45.455Z,101543.69
2023-05-10T16:31:44.300Z,101547.97
2023-05-10T16:36:41.038Z,101557.88
2023-05-10T16:41:38.386Z,101556.25
2023-05-10T16:46:34.935Z,101549.59
2023-05-10T16:51:31.635Z,101556.91
2023-05-10T16:56:28.170Z,101559.50
2023-05-10T17:01:26.961Z,101555.66
2023-05-10T17:06:23.842Z,101561.88
2023-05-10T17:11:21.218Z,101564.25
2023-05-10T17:16:18.561Z,101563.16
2023-05-10T17:21:16.046Z,101565.13
2023-05-10T17:26:12.674Z,101574.84
2023-05-10T17:31:09.533Z,101585.72
2023-05-10T17:36:06.452Z,101585.56
2023-05-10T17:41:03.656Z,101581.56
2023-05-10T17:46:03.026Z,101589.22
2023-05-10T17:50:59.584Z,101599.31
2023-05-10T17:55:58.269Z,101600.75
2023-05-10T18:00:56.923Z,101598.78
2023-05-10T18:05:54.679Z,101600.59
2023-05-10T18:10:51.566Z,101607.59
2023-05-10T18:15:48.248Z,101615.88
2023-05-10T18:20:46.358Z,101624.28
2023-05-10T18:25:43.225Z,101630.81
2023-05-10T18:30:40.479Z,101631.94
2023-05-10T18:35:37.557Z,101634.38
2023-05-10T18:40:34.956Z,101659.63
2023-05-10T18:45:31.626Z,101650.88
2023-05-10T18:50:28.517Z,101658.97
2023-05-10T18:55:25.531Z,101654.97
2023-05-10T19:00:22.897Z,101667.19
2023-05-10T19:05:19.793Z,101650.56
2023-05-10T19:10:18.841Z,101673.56
2023-05-10T19:15:16.642Z,101679.72
2023-05-10T19:20:16.331Z,101666.63
2023-05-10T19:25:13.288Z,101681.63
2023-05-10T19:30:10.597Z,101697.03
2023-05-10T19:35:07.441Z,101709.88
2023-05-10T19:40:05.394Z,101707.28
2023-05-10T19:45:02.201Z,101704.22
2023-05-10T19:49:59.152Z,101707.34
2023-05-10T19:54:55.972Z,101696.97
2023-05-10T19:59:53.387Z,101686.66
2023-05-10T20:04:50.050Z,101686.88
2023-05-10T20:09:46.755Z,101688.34
2023-05-10T20:14:43.352Z,101673.69
2023-05-10T20:19:40.709Z,101680.25
2023-05-10T20:24:37.411Z,101683.78
2023-05-10T20:29:34.327Z,101693.09
2023-05-10T20:34:31.101Z,101696.59
2023-05-10T20:39:28.481Z,101690.22
2023-05-10T20:44:25.858Z,101699.28
2023-05-10T20:49:22.487Z,101710.91
2023-05-10T20:54:19.626Z,101714.06
2023-05-10T20:59:17.782Z,101710.16
2023-05-10T21:04:16.729Z,101709.22
2023-05-10T21:09:13.528Z,101700.66
2023-05-10T21:14:13.159Z,101709.28
2023-05-10T21:19:11.330Z,101705.81
2023-05-10T21:24:07.890Z,101699.94
2023-05-10T21:29:04.561Z,101698.34
2023-05-10T21:34:01.180Z,101688.53
2023-05-10T21:38:58.351Z,101690.59
2023-05-10T21:43:55.848Z,101699.25
2023-05-10T21:48:52.406Z,101687.63
2023-05-10T21:53:49.973Z,101690.19
2023-05-10T21:58:47.223Z,101700.88
2023-05-10T22:03:44.243Z,101708.00
2023-05-10T22:08:40.843Z,101695.25
2023-05-10T22:13:37.399Z,101698.63
2023-05-10T22:18:34.798Z,101699.25
2023-05-10T22:23:31.486Z,101701.63
2023-05-10T22:28:28.134Z,101702.88
2023-05-10T22:33:24.673Z,101706.91
2023-05-10T22:38:22.002Z,101707.16
2023-05-10T22:43:19.886Z,101699.94
2023-05-10T22:48:16.436Z,101698.69
2023-05-10T22:53:12.925Z,101679.31
2023-05-10T22:58:10.318Z,101696.78
2023-05-10T23:03:06.984Z,101678.97
2023-05-10T23:08:03.556Z,101698.97
2023-05-10T23:13:00.132Z,101701.22
2023-05-10T23:18:00.317Z,101692.88
2023-05-10T23:22:56.863Z,101701.84
2023-05-10T23:27:53.405Z,101707.19
2023-05-10T23:32:50.142Z,101706.28
2023-05-10T23:37:47.357Z,101703.59
2023-05-10T23:42:43.932Z,101715.00
2023-05-10T23:47:40.837Z,101706.94
2023-05-10T23:52:37.523Z,101707.97
2023-05-10T23:57:37.654Z,101716.34
